Time;durP1;ratioP1;P1;durP2;ratioP2;P2;SDS_P1;SDS_P2;PMS_P1;PMS_P2;Temp;Humidity;BMP_temperature;BMP_pressure;BME280_temperature;BME280_humidity;BME280_pressure;Samples;Min_cycle;Max_cycle;Signal;HPM_P1;HPM_P2
2022/05/09 00:01:57;;;;;;;4.77;2.70;;;;;;;;;;4991367;28;20822;-71
2022/05/09 00:04:23;;;;;;;3.20;2.33;;;;;;;;;;4990043;28;20343;-71
2022/05/09 00:06:49;;;;;;;4.87;2.67;;;;;;;;;;4986348;28;20201;-71
2022/05/09 00:09:16;;;;;;;4.47;2.70;;;;;;;;;;4982887;28;20182;-70
2022/05/09 00:11:42;;;;;;;6.73;2.57;;;;;;;;;;4968770;28;20182;-72
2022/05/09 00:14:08;;;;;;;4.97;3.27;;;;;;;;;;4977340;28;20193;-70
2022/05/09 00:16:34;;;;;;;3.20;2.60;;;;;;;;;;4987701;28;20198;-70
2022/05/09 00:19:03;;;;;;;3.40;2.60;;;;;;;;;;4990664;28;20532;-70
2022/05/09 00:21:29;;;;;;;4.97;3.00;;;;;;;;;;4991758;28;20225;-70
2022/05/09 00:23:55;;;;;;;4.83;2.80;;;;;;;;;;4991793;28;20602;-70
2022/05/09 00:26:22;;;;;;;5.23;2.70;;;;;;;;;;4991391;28;20214;-71
2022/05/09 00:28:48;;;;;;;5.93;2.93;;;;;;;;;;4994298;28;20178;-69
2022/05/09 00:31:14;;;;;;;3.90;2.53;;;;;;;;;;4989717;28;20186;-71
2022/05/09 00:33:40;;;;;;;5.50;2.50;;;;;;;;;;4993494;28;20190;-70
2022/05/09 00:36:06;;;;;;;3.50;3.00;;;;;;;;;;4987662;28;20186;-71
2022/05/09 00:38:32;;;;;;;9.00;2.93;;;;;;;;;;4967212;28;20190;-71
2022/05/09 00:43:42;;;;;;;4.73;2.60;;;;;;;;;;4989708;28;20200;-70
2022/05/09 00:46:08;;;;;;;4.30;2.77;;;;;;;;;;4984014;28;20210;-70
2022/05/09 00:48:35;;;;;;;4.50;2.93;;;;;;;;;;4986554;28;20186;-70
2022/05/09 00:51:01;;;;;;;4.47;2.70;;;;;;;;;;4989155;28;20183;-71
2022/05/09 00:53:27;;;;;;;6.10;3.23;;;;;;;;;;4992218;28;20205;-71
2022/05/09 00:55:54;;;;;;;3.50;2.60;;;;;;;;;;4991456;28;20673;-70
2022/05/09 00:58:38;;;;;;;5.83;2.67;;;;;;;;;;4996408;28;20746;-70
2022/05/09 01:01:04;;;;;;;4.83;3.87;;;;;;;;;;4975359;28;20272;-70
2022/05/09 01:03:33;;;;;;;4.40;3.40;;;;;;;;;;4990791;28;20708;-70
2022/05/09 01:05:59;;;;;;;6.10;3.50;;;;;;;;;;4989810;28;20213;-70
2022/05/09 01:08:25;;;;;;;3.73;3.20;;;;;;;;;;4995962;28;20193;-70
2022/05/09 01:10:51;;;;;;;6.30;3.57;;;;;;;;;;4986450;28;20278;-70
2022/05/09 01:13:17;;;;;;;6.07;3.27;;;;;;;;;;4969083;28;20209;-70
2022/05/09 01:15:45;;;;;;;5.23;3.30;;;;;;;;;;4986755;28;20301;-71
2022/05/09 01:18:11;;;;;;;4.93;3.20;;;;;;;;;;4990987;28;20193;-70
2022/05/09 01:20:37;;;;;;;6.20;3.83;;;;;;;;;;4988176;28;20272;-71
2022/05/09 01:23:04;;;;;;;6.00;3.37;;;;;;;;;;4989439;28;20182;-71
2022/05/09 01:25:31;;;;;;;7.60;3.73;;;;;;;;;;4996603;28;20219;-71
2022/05/09 01:27:57;;;;;;;4.77;3.20;;;;;;;;;;4993600;28;24405;-70
2022/05/09 01:30:25;;;;;;;3.80;3.23;;;;;;;;;;4992700;28;21324;-70
2022/05/09 01:32:56;;;;;;;4.57;3.10;;;;;;;;;;4988190;28;20629;-71
2022/05/09 01:35:38;;;;;;;4.67;2.87;;;;;;;;;;4974860;28;20245;-70
2022/05/09 01:38:11;;;;;;;3.93;2.97;;;;;;;;;;4992780;28;20652;-71
2022/05/09 01:40:36;;;;;;;7.23;2.97;;;;;;;;;;4994804;28;20205;-70
2022/05/09 01:43:02;;;;;;;3.77;2.70;;;;;;;;;;4995356;28;20185;-70
2022/05/09 01:45:28;;;;;;;4.50;2.90;;;;;;;;;;4987388;28;20275;-71
2022/05/09 01:50:39;;;;;;;4.57;3.07;;;;;;;;;;4990893;28;20213;-71
2022/05/09 01:53:05;;;;;;;4.70;3.00;;;;;;;;;;4988571;28;20182;-71
2022/05/09 01:55:31;;;;;;;5.03;3.17;;;;;;;;;;4992130;28;20272;-71
2022/05/09 01:57:57;;;;;;;5.33;3.10;;;;;;;;;;4996557;28;20736;-72
2022/05/09 02:00:24;;;;;;;4.67;2.80;;;;;;;;;;4979523;28;21275;-71
2022/05/09 02:02:50;;;;;;;4.70;2.73;;;;;;;;;;4980464;28;20332;-70
2022/05/09 02:05:16;;;;;;;4.57;2.77;;;;;;;;;;4983687;28;20584;-71
2022/05/09 02:07:43;;;;;;;4.00;3.07;;;;;;;;;;4990679;28;20625;-70
2022/05/09 02:10:09;;;;;;;4.03;3.03;;;;;;;;;;4987525;28;20186;-70
2022/05/09 02:12:35;;;;;;;3.90;2.90;;;;;;;;;;4997316;28;20186;-71
2022/05/09 02:15:01;;;;;;;5.80;3.57;;;;;;;;;;4983041;28;20198;-71
2022/05/09 02:17:29;;;;;;;3.80;3.43;;;;;;;;;;4989033;28;20201;-71
2022/05/09 02:19:55;;;;;;;5.43;3.47;;;;;;;;;;4991368;28;20245;-70
2022/05/09 02:22:21;;;;;;;5.10;3.50;;;;;;;;;;4990140;28;20190;-71
2022/05/09 02:24:47;;;;;;;4.27;3.33;;;;;;;;;;4990509;28;20588;-71
2022/05/09 02:27:13;;;;;;;4.70;3.40;;;;;;;;;;4992654;28;20197;-71
2022/05/09 02:29:39;;;;;;;4.03;3.53;;;;;;;;;;4995031;28;20191;-70
2022/05/09 02:32:06;;;;;;;5.33;3.50;;;;;;;;;;4992756;28;20181;-70
2022/05/09 02:34:32;;;;;;;5.97;3.20;;;;;;;;;;4985701;28;20240;-71
2022/05/09 02:36:58;;;;;;;4.23;2.90;;;;;;;;;;4992847;28;20269;-71
2022/05/09 02:39:24;;;;;;;4.70;3.10;;;;;;;;;;4987709;28;20213;-70
2022/05/09 02:41:50;;;;;;;7.10;4.20;;;;;;;;;;4988409;28;20604;-71
2022/05/09 02:44:16;;;;;;;4.53;3.70;;;;;;;;;;4990787;28;20284;-70
2022/05/09 02:46:44;;;;;;;5.10;3.47;;;;;;;;;;4995629;28;20597;-70
2022/05/09 02:49:11;;;;;;;6.80;3.50;;;;;;;;;;4992246;28;20248;-71
2022/05/09 02:51:37;;;;;;;3.73;3.40;;;;;;;;;;4988259;28;20927;-71
2022/05/09 02:54:03;;;;;;;4.73;3.30;;;;;;;;;;4990333;28;20178;-70
2022/05/09 02:56:29;;;;;;;3.70;3.30;;;;;;;;;;4980387;28;20213;-71
2022/05/09 02:58:55;;;;;;;4.33;3.50;;;;;;;;;;4994990;28;20567;-71
2022/05/09 03:01:21;;;;;;;5.93;3.60;;;;;;;;;;4988533;28;20198;-71
2022/05/09 03:06:31;;;;;;;4.83;3.30;;;;;;;;;;4988141;28;21506;-71
2022/05/09 03:08:57;;;;;;;4.87;3.93;;;;;;;;;;4988723;28;20719;-71
2022/05/09 03:11:23;;;;;;;4.53;3.80;;;;;;;;;;4992567;28;20197;-71
2022/05/09 03:13:49;;;;;;;4.83;3.70;;;;;;;;;;4983637;28;20186;-71
2022/05/09 03:16:15;;;;;;;4.33;3.40;;;;;;;;;;4990689;28;20265;-71
2022/05/09 03:18:41;;;;;;;5.13;3.57;;;;;;;;;;4989494;28;20206;-71
2022/05/09 03:21:07;;;;;;;8.10;3.60;;;;;;;;;;4994396;28;20702;-71
2022/05/09 03:23:33;;;;;;;7.50;3.70;;;;;;;;;;4991748;28;20191;-70
2022/05/09 03:25:59;;;;;;;4.10;3.50;;;;;;;;;;4989690;28;20606;-71
2022/05/09 03:28:25;;;;;;;4.67;4.00;;;;;;;;;;4992958;28;20193;-71
2022/05/09 03:30:52;;;;;;;4.17;3.33;;;;;;;;;;4993009;28;20189;-70
2022/05/09 03:33:20;;;;;;;4.00;3.00;;;;;;;;;;4998514;28;20210;-71
2022/05/09 03:35:45;;;;;;;4.60;3.40;;;;;;;;;;4985225;28;20659;-71
2022/05/09 03:38:11;;;;;;;5.83;3.47;;;;;;;;;;4994406;28;20218;-71
2022/05/09 03:40:37;;;;;;;3.87;3.47;;;;;;;;;;4991996;28;20193;-71
2022/05/09 03:43:05;;;;;;;5.27;3.60;;;;;;;;;;4991067;28;20194;-71
2022/05/09 03:45:31;;;;;;;5.10;4.00;;;;;;;;;;4986203;28;20678;-71
2022/05/09 03:47:57;;;;;;;4.33;3.30;;;;;;;;;;4991540;28;20189;-71
2022/05/09 03:50:23;;;;;;;4.80;3.90;;;;;;;;;;4995323;28;20248;-71
2022/05/09 03:52:49;;;;;;;6.37;3.63;;;;;;;;;;4992677;28;20217;-71
2022/05/09 03:55:15;;;;;;;5.30;3.40;;;;;;;;;;4990295;28;20554;-71
2022/05/09 03:57:45;;;;;;;5.53;3.60;;;;;;;;;;4991936;28;20182;-71
2022/05/09 04:00:11;;;;;;;5.50;3.60;;;;;;;;;;4986147;28;21233;-71
2022/05/09 04:02:37;;;;;;;4.00;3.50;;;;;;;;;;4987109;28;20202;-71
2022/05/09 04:05:03;;;;;;;4.73;4.03;;;;;;;;;;4987238;28;20319;-70
2022/05/09 04:07:29;;;;;;;4.87;3.50;;;;;;;;;;4990522;28;20276;-71
2022/05/09 04:09:55;;;;;;;4.80;3.80;;;;;;;;;;4991080;28;20307;-71
2022/05/09 04:12:21;;;;;;;6.80;3.90;;;;;;;;;;4988191;28;20200;-70
2022/05/09 04:17:31;;;;;;;6.07;3.43;;;;;;;;;;4985051;28;20744;-71
2022/05/09 04:19:57;;;;;;;6.70;3.57;;;;;;;;;;4992319;28;20186;-71
2022/05/09 04:22:23;;;;;;;4.57;3.67;;;;;;;;;;4986507;28;20661;-71
2022/05/09 04:24:50;;;;;;;6.27;3.47;;;;;;;;;;4980372;28;20222;-71
2022/05/09 04:27:16;;;;;;;5.70;3.50;;;;;;;;;;4999528;28;20181;-71
2022/05/09 04:29:42;;;;;;;5.60;3.47;;;;;;;;;;4987277;28;20240;-72
2022/05/09 04:32:08;;;;;;;3.47;3.13;;;;;;;;;;4985710;28;20546;-71
2022/05/09 04:34:34;;;;;;;5.37;3.60;;;;;;;;;;4986993;28;20185;-72
2022/05/09 04:37:00;;;;;;;5.03;3.60;;;;;;;;;;4988528;28;20209;-72
2022/05/09 04:39:26;;;;;;;4.50;3.50;;;;;;;;;;4988607;28;20185;-70
2022/05/09 04:41:52;;;;;;;6.30;3.60;;;;;;;;;;4984379;28;20205;-70
2022/05/09 04:44:18;;;;;;;4.33;3.40;;;;;;;;;;4982320;28;20182;-70
2022/05/09 04:46:45;;;;;;;4.80;3.10;;;;;;;;;;4977391;28;20872;-70
2022/05/09 04:49:11;;;;;;;5.07;3.50;;;;;;;;;;4964874;28;20208;-71
2022/05/09 04:51:37;;;;;;;4.27;3.20;;;;;;;;;;4977830;28;20190;-71
2022/05/09 04:54:03;;;;;;;4.87;3.30;;;;;;;;;;4979483;28;20181;-70
2022/05/09 04:56:28;;;;;;;4.50;3.50;;;;;;;;;;4978440;28;20200;-70
2022/05/09 04:58:54;;;;;;;6.10;3.47;;;;;;;;;;4985611;28;20197;-71
2022/05/09 05:01:20;;;;;;;4.37;3.60;;;;;;;;;;4977560;28;20264;-70
2022/05/09 05:03:46;;;;;;;5.63;3.77;;;;;;;;;;4989441;28;20240;-70
2022/05/09 05:06:12;;;;;;;6.17;3.40;;;;;;;;;;4984725;28;20254;-70
2022/05/09 05:08:38;;;;;;;3.57;3.27;;;;;;;;;;4992828;28;20182;-70
2022/05/09 05:11:05;;;;;;;4.43;3.60;;;;;;;;;;4983847;28;20210;-70
2022/05/09 05:13:33;;;;;;;5.80;3.60;;;;;;;;;;4985665;28;20577;-70
2022/05/09 05:15:59;;;;;;;3.27;2.93;;;;;;;;;;4984742;28;20198;-71
2022/05/09 05:18:26;;;;;;;6.67;3.63;;;;;;;;;;4978110;28;20244;-71
2022/05/09 05:20:52;;;;;;;6.03;4.20;;;;;;;;;;4964580;28;20189;-72
2022/05/09 05:23:18;;;;;;;5.33;4.10;;;;;;;;;;4990740;28;20670;-72
2022/05/09 05:25:45;;;;;;;6.60;4.37;;;;;;;;;;4988524;28;20650;-72
2022/05/09 05:28:11;;;;;;;6.30;4.83;;;;;;;;;;4981598;28;20398;-71
2022/05/09 05:30:37;;;;;;;6.20;4.40;;;;;;;;;;4982921;28;20661;-70
2022/05/09 05:33:04;;;;;;;6.30;4.50;;;;;;;;;;4993887;28;20783;-71
2022/05/09 05:35:30;;;;;;;5.13;4.07;;;;;;;;;;4997974;28;20181;-70
2022/05/09 05:37:56;;;;;;;5.73;4.00;;;;;;;;;;4995743;28;20570;-70
2022/05/09 05:40:22;;;;;;;6.03;3.83;;;;;;;;;;4998358;28;20228;-70
2022/05/09 05:42:48;;;;;;;6.30;4.33;;;;;;;;;;4993756;28;20182;-70
2022/05/09 05:45:14;;;;;;;8.27;4.40;;;;;;;;;;4998264;28;20670;-70
2022/05/09 05:47:40;;;;;;;7.00;3.90;;;;;;;;;;4999294;28;20194;-70
2022/05/09 05:50:07;;;;;;;4.17;3.70;;;;;;;;;;4995918;28;20657;-70
2022/05/09 05:52:33;;;;;;;8.73;4.13;;;;;;;;;;4996808;28;20224;-70
2022/05/09 05:54:59;;;;;;;6.03;3.87;;;;;;;;;;4997822;28;20198;-70
2022/05/09 05:57:26;;;;;;;6.60;3.87;;;;;;;;;;4993439;28;20793;-70
2022/05/09 06:00:02;;;;;;;5.83;3.70;;;;;;;;;;4988543;28;20236;-70
2022/05/09 06:02:28;;;;;;;4.73;3.60;;;;;;;;;;4994197;28;20267;-70
2022/05/09 06:04:54;;;;;;;5.87;3.90;;;;;;;;;;4995569;28;20294;-70
2022/05/09 06:07:22;;;;;;;6.47;3.80;;;;;;;;;;4994204;28;20190;-70
2022/05/09 06:09:49;;;;;;;6.57;3.57;;;;;;;;;;4996200;28;20178;-70
2022/05/09 06:12:15;;;;;;;4.83;3.70;;;;;;;;;;4994305;28;20178;-70
2022/05/09 06:14:41;;;;;;;7.67;4.60;;;;;;;;;;4995635;28;20193;-70
2022/05/09 06:17:07;;;;;;;4.67;3.40;;;;;;;;;;5004799;28;20185;-70
2022/05/09 06:19:33;;;;;;;8.70;3.90;;;;;;;;;;4997929;28;20200;-70
2022/05/09 06:22:00;;;;;;;6.43;3.70;;;;;;;;;;4995369;28;20190;-70
2022/05/09 06:24:26;;;;;;;5.77;3.30;;;;;;;;;;4998897;28;20197;-69
2022/05/09 06:26:52;;;;;;;4.80;3.50;;;;;;;;;;4996097;28;20217;-70
2022/05/09 06:29:18;;;;;;;7.57;3.13;;;;;;;;;;4997403;28;20562;-70
2022/05/09 06:31:44;;;;;;;6.47;3.83;;;;;;;;;;4997985;28;20190;-70
2022/05/09 06:34:13;;;;;;;5.37;3.33;;;;;;;;;;5000601;28;20186;-70
2022/05/09 06:36:39;;;;;;;4.20;2.73;;;;;;;;;;4996121;28;20186;-70
2022/05/09 06:39:05;;;;;;;3.70;3.03;;;;;;;;;;4977071;28;20233;-70
2022/05/09 06:41:31;;;;;;;8.00;3.40;;;;;;;;;;4994581;28;20290;-70
2022/05/09 06:43:57;;;;;;;6.03;3.47;;;;;;;;;;4984005;28;20219;-70
2022/05/09 06:46:23;;;;;;;9.17;3.77;;;;;;;;;;4980702;28;20214;-70
2022/05/09 06:48:49;;;;;;;5.07;3.07;;;;;;;;;;4992489;28;20201;-70
2022/05/09 06:51:15;;;;;;;9.00;3.40;;;;;;;;;;4995182;28;20188;-70
2022/05/09 06:53:41;;;;;;;5.43;3.10;;;;;;;;;;4998636;28;20179;-70
2022/05/09 06:56:07;;;;;;;5.00;2.97;;;;;;;;;;4987760;28;20190;-70
2022/05/09 06:58:32;;;;;;;4.37;3.50;;;;;;;;;;4992578;28;20194;-70
2022/05/09 07:00:58;;;;;;;5.23;3.00;;;;;;;;;;4994024;28;20190;-70
2022/05/09 07:03:25;;;;;;;4.83;2.97;;;;;;;;;;4987311;28;20538;-70
2022/05/09 07:05:51;;;;;;;4.60;2.87;;;;;;;;;;4992283;28;20844;-70
2022/05/09 07:08:18;;;;;;;5.17;3.00;;;;;;;;;;4996419;28;20181;-70
2022/05/09 07:10:44;;;;;;;6.33;3.20;;;;;;;;;;5007696;28;20711;-69
2022/05/09 07:13:10;;;;;;;4.80;3.07;;;;;;;;;;4998285;28;20639;-70
2022/05/09 07:15:36;;;;;;;4.57;3.10;;;;;;;;;;4988846;28;20613;-70
2022/05/09 07:18:03;;;;;;;5.90;3.10;;;;;;;;;;4992660;28;20208;-70
2022/05/09 07:20:30;;;;;;;3.80;3.07;;;;;;;;;;4995353;28;20336;-70
2022/05/09 07:22:57;;;;;;;5.70;3.00;;;;;;;;;;5001261;28;20656;-70
2022/05/09 07:25:23;;;;;;;3.92;2.80;;;;;;;;;;4995185;28;20204;-70
2022/05/09 07:27:49;;;;;;;5.22;3.65;;;;;;;;;;4994016;28;20556;-70
2022/05/09 07:30:16;;;;;;;7.47;3.63;;;;;;;;;;4991832;28;20196;-71
2022/05/09 07:32:42;;;;;;;7.75;3.65;;;;;;;;;;4993728;28;20182;-70
2022/05/09 07:35:09;;;;;;;7.28;3.60;;;;;;;;;;4996260;28;20182;-71
2022/05/09 07:37:35;;;;;;;7.05;3.63;;;;;;;;;;4996777;28;20190;-70
2022/05/09 07:40:00;;;;;;;5.97;3.45;;;;;;;;;;4995430;28;20246;-71
2022/05/09 07:42:27;;;;;;;3.60;3.20;;;;;;;;;;4998303;28;20678;-70
2022/05/09 07:44:56;;;;;;;4.63;3.10;;;;;;;;;;4994516;28;20285;-71
2022/05/09 07:47:22;;;;;;;6.47;3.70;;;;;;;;;;4993326;28;20228;-70
2022/05/09 07:49:48;;;;;;;9.50;3.63;;;;;;;;;;4996815;28;20264;-70
2022/05/09 07:52:13;;;;;;;4.60;3.35;;;;;;;;;;4991746;28;20178;-71
2022/05/09 07:54:39;;;;;;;4.65;3.42;;;;;;;;;;4993972;28;20582;-70
2022/05/09 07:57:05;;;;;;;6.13;3.42;;;;;;;;;;4992204;28;20214;-71
2022/05/09 07:59:31;;;;;;;6.80;3.58;;;;;;;;;;4990717;28;20196;-70
2022/05/09 08:01:57;;;;;;;5.45;3.45;;;;;;;;;;4996515;28;20225;-71
2022/05/09 08:04:23;;;;;;;3.97;3.33;;;;;;;;;;4976528;28;20753;-70
2022/05/09 08:06:49;;;;;;;7.18;3.60;;;;;;;;;;5000311;28;20209;-70
2022/05/09 08:09:15;;;;;;;4.53;3.30;;;;;;;;;;4995024;28;20181;-71
2022/05/09 08:11:42;;;;;;;4.88;3.60;;;;;;;;;;4999016;28;20183;-70
2022/05/09 08:14:08;;;;;;;5.43;3.13;;;;;;;;;;4991171;28;20191;-70
2022/05/09 08:16:34;;;;;;;8.65;3.15;;;;;;;;;;4993251;28;20190;-69
2022/05/09 08:19:02;;;;;;;6.22;3.55;;;;;;;;;;4992751;28;20691;-70
2022/05/09 08:21:27;;;;;;;6.03;3.35;;;;;;;;;;4993129;28;20181;-70
2022/05/09 08:23:53;;;;;;;4.93;3.22;;;;;;;;;;4994633;28;21107;-71
2022/05/09 08:26:22;;;;;;;7.40;3.60;;;;;;;;;;5002412;28;20729;-72
2022/05/09 08:28:54;;;;;;;7.10;3.67;;;;;;;;;;4993323;28;20282;-70
2022/05/09 08:31:21;;;;;;;3.83;3.40;;;;;;;;;;4992526;28;20231;-71
2022/05/09 08:33:47;;;;;;;7.03;3.95;;;;;;;;;;4994588;28;20193;-70
2022/05/09 08:36:45;;;;;;;5.13;3.22;;;;;;;;;;4997281;28;20661;-70
2022/05/09 08:39:00;;;;;;;5.68;3.10;;;;;;;;;;4995630;28;20193;-70
2022/05/09 08:41:26;;;;;;;3.95;2.72;;;;;;;;;;4995841;28;20210;-70
2022/05/09 08:44:06;;;;;;;5.57;3.15;;;;;;;;;;4998009;28;20216;-71
2022/05/09 08:46:36;;;;;;;4.00;3.00;;;;;;;;;;4990933;28;20750;-71
2022/05/09 08:49:11;;;;;;;4.55;2.63;;;;;;;;;;4996604;28;20627;-71
2022/05/09 08:51:43;;;;;;;6.20;2.65;;;;;;;;;;4994753;28;20724;-71
2022/05/09 08:54:11;;;;;;;4.28;2.53;;;;;;;;;;4993082;28;20228;-70
2022/05/09 08:56:37;;;;;;;6.15;2.55;;;;;;;;;;4995989;28;20237;-71
2022/05/09 08:59:04;;;;;;;3.22;2.60;;;;;;;;;;4989109;28;20190;-70
2022/05/09 09:01:44;;;;;;;7.32;2.55;;;;;;;;;;4990462;28;20194;-70
2022/05/09 09:04:31;;;;;;;4.10;2.45;;;;;;;;;;4991097;28;20943;-71
2022/05/09 09:07:09;;;;;;;4.82;3.20;;;;;;;;;;4991899;28;20221;-71
2022/05/09 09:09:37;;;;;;;4.15;2.80;;;;;;;;;;4993295;28;20185;-71
2022/05/09 09:12:14;;;;;;;3.85;2.60;;;;;;;;;;4996730;28;20182;-71
2022/05/09 09:14:43;;;;;;;3.40;2.58;;;;;;;;;;4992922;28;20190;-71
2022/05/09 09:17:09;;;;;;;5.57;2.50;;;;;;;;;;4999883;28;20197;-71
2022/05/09 09:19:52;;;;;;;2.90;2.40;;;;;;;;;;4995267;28;20630;-71
2022/05/09 09:22:21;;;;;;;5.15;2.60;;;;;;;;;;4995232;28;20677;-71
2022/05/09 09:24:50;;;;;;;6.95;3.30;;;;;;;;;;5000604;28;20245;-71
2022/05/09 09:27:34;;;;;;;4.40;2.45;;;;;;;;;;4997473;28;20186;-72
2022/05/09 09:30:01;;;;;;;8.50;3.00;;;;;;;;;;4981605;28;20182;-71
2022/05/09 09:32:27;;;;;;;3.55;2.63;;;;;;;;;;4985502;28;20538;-71
2022/05/09 09:34:53;;;;;;;5.35;2.42;;;;;;;;;;4995963;28;20566;-71
2022/05/09 09:37:39;;;;;;;4.90;2.65;;;;;;;;;;4993335;28;20186;-70
2022/05/09 09:40:06;;;;;;;7.15;2.60;;;;;;;;;;4998516;28;20619;-71
2022/05/09 09:42:32;;;;;;;3.13;2.50;;;;;;;;;;4997014;28;20220;-70
2022/05/09 09:45:00;;;;;;;3.10;2.58;;;;;;;;;;4996790;28;20193;-71
2022/05/09 09:47:27;;;;;;;4.50;2.75;;;;;;;;;;4995009;28;20189;-70
2022/05/09 09:50:12;;;;;;;3.47;2.92;;;;;;;;;;4999236;28;20803;-71
2022/05/09 09:52:42;;;;;;;4.20;2.60;;;;;;;;;;4995895;28;20602;-70
2022/05/09 09:55:22;;;;;;;3.72;2.72;;;;;;;;;;4996043;28;20194;-70
2022/05/09 09:57:48;;;;;;;4.35;2.70;;;;;;;;;;4998011;28;20186;-70
2022/05/09 10:00:14;;;;;;;4.93;2.70;;;;;;;;;;4994875;28;20704;-71
2022/05/09 10:02:40;;;;;;;6.03;2.83;;;;;;;;;;4995030;28;20692;-71
2022/05/09 10:05:10;;;;;;;5.60;2.88;;;;;;;;;;4993376;28;20241;-71
2022/05/09 10:07:39;;;;;;;6.43;2.85;;;;;;;;;;4996392;28;20192;-72
2022/05/09 10:10:12;;;;;;;4.53;3.20;;;;;;;;;;4999045;28;20169;-71
2022/05/09 10:12:39;;;;;;;5.57;3.15;;;;;;;;;;4991311;28;20178;-72
2022/05/09 10:15:19;;;;;;;3.95;3.08;;;;;;;;;;4988947;28;20257;-71
2022/05/09 10:17:45;;;;;;;5.07;2.70;;;;;;;;;;4996078;28;20182;-71
2022/05/09 10:20:33;;;;;;;5.20;3.17;;;;;;;;;;4994311;28;20189;-70
2022/05/09 10:25:58;;;;;;;5.22;3.03;;;;;;;;;;4995979;28;20220;-71
2022/05/09 10:28:24;;;;;;;4.70;3.10;;;;;;;;;;4993216;28;20182;-71
2022/05/09 10:30:51;;;;;;;3.30;2.78;;;;;;;;;;4993478;28;20189;-71
2022/05/09 10:33:33;;;;;;;4.70;2.83;;;;;;;;;;4996064;28;20197;-72
2022/05/09 10:35:59;;;;;;;3.92;3.30;;;;;;;;;;4993062;28;20181;-72
2022/05/09 10:38:27;;;;;;;4.00;2.80;;;;;;;;;;4998680;28;20202;-71
2022/05/09 10:40:59;;;;;;;4.57;3.10;;;;;;;;;;4995098;28;20807;-71
2022/05/09 10:43:32;;;;;;;4.05;2.88;;;;;;;;;;4991759;28;20185;-70
2022/05/09 10:45:58;;;;;;;3.53;2.75;;;;;;;;;;4987469;28;20205;-70
2022/05/09 10:48:35;;;;;;;5.32;3.28;;;;;;;;;;4990043;28;20652;-71
2022/05/09 10:51:03;;;;;;;4.93;3.20;;;;;;;;;;4984909;28;20219;-71
2022/05/09 10:53:32;;;;;;;6.70;2.95;;;;;;;;;;4988134;28;20182;-70
2022/05/09 10:56:09;;;;;;;4.88;3.05;;;;;;;;;;4996332;28;20202;-72
2022/05/09 10:58:41;;;;;;;4.18;3.00;;;;;;;;;;4995718;28;20225;-71
2022/05/09 11:01:09;;;;;;;4.82;3.00;;;;;;;;;;4977845;28;20204;-71
2022/05/09 11:03:35;;;;;;;3.75;3.17;;;;;;;;;;4996585;28;20801;-71
2022/05/09 11:06:04;;;;;;;3.20;2.75;;;;;;;;;;4993994;28;20205;-72
2022/05/09 11:08:39;;;;;;;3.20;2.90;;;;;;;;;;4994207;28;20666;-73
2022/05/09 11:11:11;;;;;;;6.20;3.17;;;;;;;;;;4990929;28;20197;-71
2022/05/09 11:13:43;;;;;;;3.15;2.85;;;;;;;;;;4988510;28;20204;-71
2022/05/09 11:16:12;;;;;;;3.03;2.72;;;;;;;;;;4997129;28;20198;-72
2022/05/09 11:18:53;;;;;;;3.72;2.83;;;;;;;;;;4994697;28;20648;-72
2022/05/09 11:21:39;;;;;;;3.45;2.70;;;;;;;;;;4992061;28;20663;-71
2022/05/09 11:24:07;;;;;;;2.88;2.67;;;;;;;;;;4996508;28;20586;-72
2022/05/09 11:26:39;;;;;;;4.82;2.75;;;;;;;;;;4995049;28;21419;-72
2022/05/09 11:29:24;;;;;;;3.50;2.40;;;;;;;;;;4995576;28;20533;-71
2022/05/09 11:31:53;;;;;;;3.10;2.80;;;;;;;;;;4996960;28;20200;-72
2022/05/09 11:34:32;;;;;;;3.75;3.25;;;;;;;;;;4988480;28;20248;-72
2022/05/09 11:37:02;;;;;;;4.05;2.92;;;;;;;;;;4992704;28;20193;-72
2022/05/09 11:39:45;;;;;;;4.18;3.00;;;;;;;;;;4994745;28;20190;-72
2022/05/09 11:45:07;;;;;;;4.20;2.80;;;;;;;;;;4981696;28;20277;-71
2022/05/09 11:47:34;;;;;;;3.25;2.92;;;;;;;;;;4994338;28;20648;-71
2022/05/09 11:50:12;;;;;;;3.17;2.88;;;;;;;;;;4996695;28;20210;-72
2022/05/09 11:52:42;;;;;;;3.22;2.90;;;;;;;;;;4990829;28;20328;-71
2022/05/09 11:55:11;;;;;;;3.75;3.00;;;;;;;;;;4992142;28;20185;-72
2022/05/09 11:57:37;;;;;;;2.97;2.67;;;;;;;;;;4994769;28;20181;-71
2022/05/09 12:00:05;;;;;;;3.60;3.30;;;;;;;;;;4996127;28;20193;-71
2022/05/09 12:02:49;;;;;;;5.13;3.05;;;;;;;;;;4988238;28;20674;-72
2022/05/09 12:05:27;;;;;;;4.13;3.13;;;;;;;;;;4989079;28;20229;-72
2022/05/09 12:07:56;;;;;;;5.13;2.95;;;;;;;;;;4991617;28;20197;-72
2022/05/09 12:10:28;;;;;;;4.07;2.95;;;;;;;;;;4991364;28;20184;-71
2022/05/09 12:12:58;;;;;;;3.30;3.00;;;;;;;;;;4995185;28;20241;-72
2022/05/09 12:15:24;;;;;;;4.38;3.20;;;;;;;;;;4992223;28;20185;-71
2022/05/09 12:18:09;;;;;;;3.25;2.95;;;;;;;;;;4992822;28;20196;-72
2022/05/09 12:20:38;;;;;;;3.92;3.35;;;;;;;;;;4993311;28;20193;-72
2022/05/09 12:23:05;;;;;;;3.47;2.80;;;;;;;;;;4993104;28;20197;-72
2022/05/09 12:25:38;;;;;;;3.85;2.90;;;;;;;;;;4996076;28;20201;-71
2022/05/09 12:28:16;;;;;;;3.40;3.10;;;;;;;;;;4995743;28;20200;-72
2022/05/09 12:30:45;;;;;;;5.20;2.85;;;;;;;;;;4993995;28;20189;-72
2022/05/09 12:33:16;;;;;;;3.47;3.13;;;;;;;;;;4994142;28;20755;-72
2022/05/09 12:35:42;;;;;;;5.65;3.15;;;;;;;;;;4994446;28;20917;-72
2022/05/09 12:38:10;;;;;;;4.13;3.10;;;;;;;;;;4990102;28;20189;-71
2022/05/09 12:40:36;;;;;;;2.97;2.78;;;;;;;;;;4987265;28;20208;-71
2022/05/09 12:43:02;;;;;;;3.35;3.00;;;;;;;;;;4982061;28;20276;-72
2022/05/09 12:45:28;;;;;;;7.82;4.40;;;;;;;;;;4982936;28;20197;-74
2022/05/09 12:47:54;;;;;;;5.43;4.35;;;;;;;;;;4992973;28;20197;-74
2022/05/09 12:50:24;;;;;;;6.30;4.15;;;;;;;;;;4993578;28;20239;-74
2022/05/09 12:52:54;;;;;;;6.13;4.07;;;;;;;;;;4998705;28;20174;-74
2022/05/09 12:58:33;;;;;;;5.82;4.43;;;;;;;;;;5002164;28;20244;-73
2022/05/09 13:01:19;;;;;;;5.82;4.18;;;;;;;;;;4992054;28;20181;-73
2022/05/09 13:03:49;;;;;;;5.82;4.70;;;;;;;;;;4991474;28;20710;-74
2022/05/09 13:06:19;;;;;;;4.68;4.22;;;;;;;;;;4979090;28;21223;-75
2022/05/09 13:08:45;;;;;;;5.30;3.85;;;;;;;;;;4997241;28;20186;-74
2022/05/09 13:11:16;;;;;;;4.57;3.92;;;;;;;;;;4987420;28;20178;-74
2022/05/09 13:13:44;;;;;;;5.03;4.50;;;;;;;;;;4987687;28;20228;-74
2022/05/09 13:16:10;;;;;;;6.60;4.78;;;;;;;;;;4989092;28;20202;-75
2022/05/09 13:18:36;;;;;;;7.20;4.20;;;;;;;;;;4990393;28;20667;-73
2022/05/09 13:21:08;;;;;;;5.03;4.18;;;;;;;;;;4993048;28;20662;-74
2022/05/09 13:23:37;;;;;;;5.35;4.50;;;;;;;;;;4993452;28;20186;-73
2022/05/09 13:26:07;;;;;;;5.30;4.45;;;;;;;;;;5003229;28;20209;-73
2022/05/09 13:28:44;;;;;;;7.55;4.70;;;;;;;;;;4998257;28;20205;-73
2022/05/09 13:31:10;;;;;;;5.68;4.43;;;;;;;;;;4995060;28;20651;-74
2022/05/09 13:33:36;;;;;;;6.13;4.55;;;;;;;;;;4994098;28;20264;-75
2022/05/09 13:36:04;;;;;;;4.75;4.18;;;;;;;;;;4991033;28;20186;-73
2022/05/09 13:38:33;;;;;;;6.18;4.30;;;;;;;;;;4990096;28;20718;-73
2022/05/09 13:41:04;;;;;;;6.43;4.85;;;;;;;;;;4980023;28;20204;-73
2022/05/09 13:43:31;;;;;;;5.97;4.32;;;;;;;;;;4986418;28;21675;-73
2022/05/09 13:46:18;;;;;;;6.28;4.10;;;;;;;;;;4984994;28;21026;-73
2022/05/09 13:48:45;;;;;;;6.05;4.55;;;;;;;;;;4986620;28;20193;-73
2022/05/09 13:51:11;;;;;;;9.07;4.40;;;;;;;;;;4987997;28;20650;-73
2022/05/09 13:53:37;;;;;;;6.05;4.47;;;;;;;;;;4979836;28;20191;-72
2022/05/09 13:56:07;;;;;;;6.40;4.35;;;;;;;;;;4987368;28;20268;-73
2022/05/09 13:58:33;;;;;;;5.22;4.45;;;;;;;;;;4984701;28;20302;-73
2022/05/09 14:00:59;;;;;;;6.35;4.30;;;;;;;;;;4974869;28;20190;-74
2022/05/09 14:03:35;;;;;;;16.27;4.82;;;;;;;;;;4985893;28;20888;-74
2022/05/09 14:06:02;;;;;;;8.50;4.22;;;;;;;;;;4988653;28;20209;-73
2022/05/09 14:08:28;;;;;;;6.90;4.30;;;;;;;;;;4991704;28;20527;-73
2022/05/09 14:11:07;;;;;;;15.57;4.65;;;;;;;;;;4985189;28;21102;-73
2022/05/09 14:13:33;;;;;;;5.28;4.20;;;;;;;;;;4969691;28;20209;-73
2022/05/09 14:16:18;;;;;;;7.43;4.28;;;;;;;;;;4968916;28;22704;-73
2022/05/09 14:18:45;;;;;;;5.93;4.40;;;;;;;;;;4972709;28;20548;-73
2022/05/09 14:21:19;;;;;;;7.55;4.13;;;;;;;;;;4988176;28;20973;-73
2022/05/09 14:23:47;;;;;;;6.00;4.50;;;;;;;;;;4991494;28;20239;-73
2022/05/09 14:31:59;;;;;;;5.22;4.00;;;;;;;;;;4988297;28;20241;-73
2022/05/09 14:34:25;;;;;;;4.93;4.22;;;;;;;;;;4991011;28;20697;-74
2022/05/09 14:37:08;;;;;;;4.82;4.03;;;;;;;;;;4988652;28;20276;-73
2022/05/09 14:39:34;;;;;;;5.30;4.60;;;;;;;;;;4974878;28;20185;-74
2022/05/09 14:42:04;;;;;;;6.47;4.30;;;;;;;;;;4984987;28;20178;-74
2022/05/09 14:44:33;;;;;;;5.20;4.10;;;;;;;;;;4994928;28;20186;-74
2022/05/09 14:47:02;;;;;;;7.35;4.43;;;;;;;;;;4977458;28;20279;-74
2022/05/09 14:49:29;;;;;;;5.38;4.07;;;;;;;;;;4980768;28;20212;-74
2022/05/09 14:51:57;;;;;;;4.40;4.00;;;;;;;;;;4987118;28;20182;-74
2022/05/09 14:54:23;;;;;;;5.78;4.07;;;;;;;;;;4975569;28;20182;-73
2022/05/09 14:59:35;;;;;;;6.03;4.03;;;;;;;;;;4985867;28;20240;-74
2022/05/09 15:02:02;;;;;;;5.25;4.00;;;;;;;;;;4982337;28;20185;-74
2022/05/09 15:04:28;;;;;;;10.85;4.45;;;;;;;;;;4971335;28;20311;-74
2022/05/09 15:06:55;;;;;;;4.75;4.32;;;;;;;;;;4970509;28;20345;-74
2022/05/09 15:09:21;;;;;;;5.30;4.60;;;;;;;;;;4959965;28;20182;-73
2022/05/09 15:11:47;;;;;;;4.72;4.10;;;;;;;;;;4941863;28;20186;-73
2022/05/09 15:14:13;;;;;;;4.82;4.15;;;;;;;;;;4967864;28;20185;-73
2022/05/09 15:16:45;;;;;;;4.97;4.38;;;;;;;;;;4971360;28;20372;-73
2022/05/09 15:19:12;;;;;;;6.47;4.53;;;;;;;;;;4980922;28;20856;-72